sensor_id;sensor_type;location;lat;lon;timestamp;P1;durP1;ratioP1;P2;durP2;ratioP2
22841;SDS011;11587;47.064;15.444;2022-07-29T00:00:59;6.70;;;4.35;;
22841;SDS011;11587;47.064;15.444;2022-07-29T00:03:25;6.47;;;4.20;;
22841;SDS011;11587;47.064;15.444;2022-07-29T00:08:16;6.10;;;4.57;;
22841;SDS011;11587;47.064;15.444;2022-07-29T00:10:43;5.10;;;4.60;;
22841;SDS011;11587;47.064;15.444;2022-07-29T00:13:09;5.45;;;4.47;;
22841;SDS011;11587;47.064;15.444;2022-07-29T00:15:35;4.97;;;4.22;;
22841;SDS011;11587;47.064;15.444;2022-07-29T00:18:01;6.20;;;4.63;;
22841;SDS011;11587;47.064;15.444;2022-07-29T00:22:52;6.90;;;5.40;;
22841;SDS011;11587;47.064;15.444;2022-07-29T00:25:18;5.33;;;4.70;;
22841;SDS011;11587;47.064;15.444;2022-07-29T00:27:44;5.80;;;4.55;;
22841;SDS011;11587;47.064;15.444;2022-07-29T00:35:04;5.67;;;4.43;;
22841;SDS011;11587;47.064;15.444;2022-07-29T00:37:50;5.93;;;4.50;;
22841;SDS011;11587;47.064;15.444;2022-07-29T00:40:19;5.80;;;4.63;;
22841;SDS011;11587;47.064;15.444;2022-07-29T00:42:45;6.78;;;4.85;;
22841;SDS011;11587;47.064;15.444;2022-07-29T00:45:13;5.38;;;4.70;;
22841;SDS011;11587;47.064;15.444;2022-07-29T00:50:06;7.20;;;4.90;;
22841;SDS011;11587;47.064;15.444;2022-07-29T00:52:33;5.80;;;5.05;;
22841;SDS011;11587;47.064;15.444;2022-07-29T00:55:08;6.00;;;5.10;;
22841;SDS011;11587;47.064;15.444;2022-07-29T00:57:36;7.55;;;5.05;;
22841;SDS011;11587;47.064;15.444;2022-07-29T01:04:53;6.07;;;5.20;;
22841;SDS011;11587;47.064;15.444;2022-07-29T01:07:20;8.18;;;5.50;;
22841;SDS011;11587;47.064;15.444;2022-07-29T01:09:46;6.45;;;5.00;;
22841;SDS011;11587;47.064;15.444;2022-07-29T01:12:25;9.10;;;5.20;;
22841;SDS011;11587;47.064;15.444;2022-07-29T01:14:53;7.55;;;5.00;;
22841;SDS011;11587;47.064;15.444;2022-07-29T01:20:03;7.82;;;5.10;;
22841;SDS011;11587;47.064;15.444;2022-07-29T01:28:47;8.13;;;5.15;;
22841;SDS011;11587;47.064;15.444;2022-07-29T01:31:27;6.77;;;5.13;;
22841;SDS011;11587;47.064;15.444;2022-07-29T01:34:17;6.65;;;5.18;;
22841;SDS011;11587;47.064;15.444;2022-07-29T01:36:48;5.75;;;5.03;;
22841;SDS011;11587;47.064;15.444;2022-07-29T01:39:25;6.25;;;4.90;;
22841;SDS011;11587;47.064;15.444;2022-07-29T01:46:48;7.07;;;5.13;;
22841;SDS011;11587;47.064;15.444;2022-07-29T01:49:25;7.35;;;5.07;;
22841;SDS011;11587;47.064;15.444;2022-07-29T01:51:57;5.53;;;4.97;;
22841;SDS011;11587;47.064;15.444;2022-07-29T01:54:34;6.03;;;5.07;;
22841;SDS011;11587;47.064;15.444;2022-07-29T01:57:04;6.10;;;4.78;;
22841;SDS011;11587;47.064;15.444;2022-07-29T02:04:23;5.67;;;5.00;;
22841;SDS011;11587;47.064;15.444;2022-07-29T02:06:50;5.45;;;4.88;;
22841;SDS011;11587;47.064;15.444;2022-07-29T02:09:17;5.18;;;4.63;;
22841;SDS011;11587;47.064;15.444;2022-07-29T02:11:47;6.50;;;4.70;;
22841;SDS011;11587;47.064;15.444;2022-07-29T02:14:17;6.57;;;5.03;;
22841;SDS011;11587;47.064;15.444;2022-07-29T02:16:45;5.93;;;4.90;;
22841;SDS011;11587;47.064;15.444;2022-07-29T02:19:14;7.03;;;4.90;;
22841;SDS011;11587;47.064;15.444;2022-07-29T02:21:43;6.85;;;5.25;;
22841;SDS011;11587;47.064;15.444;2022-07-29T02:24:11;7.57;;;5.18;;
22841;SDS011;11587;47.064;15.444;2022-07-29T02:26:39;8.35;;;5.22;;
22841;SDS011;11587;47.064;15.444;2022-07-29T02:31:34;7.03;;;5.17;;
22841;SDS011;11587;47.064;15.444;2022-07-29T02:34:02;7.35;;;5.15;;
22841;SDS011;11587;47.064;15.444;2022-07-29T02:36:31;6.80;;;5.10;;
22841;SDS011;11587;47.064;15.444;2022-07-29T02:38:59;8.13;;;5.97;;
22841;SDS011;11587;47.064;15.444;2022-07-29T02:46:19;7.17;;;5.90;;
22841;SDS011;11587;47.064;15.444;2022-07-29T02:48:58;9.93;;;6.03;;
22841;SDS011;11587;47.064;15.444;2022-07-29T02:51:33;8.25;;;5.93;;
22841;SDS011;11587;47.064;15.444;2022-07-29T02:54:07;7.13;;;5.70;;
22841;SDS011;11587;47.064;15.444;2022-07-29T02:56:35;10.25;;;5.90;;
22841;SDS011;11587;47.064;15.444;2022-07-29T03:01:30;6.83;;;5.87;;
22841;SDS011;11587;47.064;15.444;2022-07-29T03:03:57;7.32;;;5.65;;
22841;SDS011;11587;47.064;15.444;2022-07-29T03:06:29;8.63;;;5.80;;
22841;SDS011;11587;47.064;15.444;2022-07-29T03:08:57;7.18;;;5.60;;
22841;SDS011;11587;47.064;15.444;2022-07-29T03:13:50;6.23;;;5.63;;
22841;SDS011;11587;47.064;15.444;2022-07-29T03:16:18;6.70;;;5.50;;
22841;SDS011;11587;47.064;15.444;2022-07-29T03:18:45;5.60;;;5.10;;
22841;SDS011;11587;47.064;15.444;2022-07-29T03:21:12;6.05;;;5.07;;
22841;SDS011;11587;47.064;15.444;2022-07-29T03:23:38;7.03;;;4.97;;
22841;SDS011;11587;47.064;15.444;2022-07-29T03:26:10;6.75;;;5.13;;
22841;SDS011;11587;47.064;15.444;2022-07-29T03:28:37;5.97;;;4.78;;
22841;SDS011;11587;47.064;15.444;2022-07-29T03:31:03;6.25;;;5.28;;
22841;SDS011;11587;47.064;15.444;2022-07-29T03:33:29;7.55;;;5.07;;
22841;SDS011;11587;47.064;15.444;2022-07-29T03:35:55;7.30;;;5.10;;
22841;SDS011;11587;47.064;15.444;2022-07-29T03:38:23;7.40;;;5.30;;
22841;SDS011;11587;47.064;15.444;2022-07-29T03:43:18;6.60;;;5.22;;
22841;SDS011;11587;47.064;15.444;2022-07-29T03:45:46;6.57;;;5.00;;
22841;SDS011;11587;47.064;15.444;2022-07-29T03:48:15;6.10;;;5.10;;
22841;SDS011;11587;47.064;15.444;2022-07-29T03:50:44;5.95;;;5.13;;
22841;SDS011;11587;47.064;15.444;2022-07-29T03:58:02;6.80;;;5.17;;
22841;SDS011;11587;47.064;15.444;2022-07-29T04:00:28;7.25;;;5.65;;
22841;SDS011;11587;47.064;15.444;2022-07-29T04:02:55;8.10;;;5.90;;
22841;SDS011;11587;47.064;15.444;2022-07-29T04:05:22;7.70;;;5.93;;
22841;SDS011;11587;47.064;15.444;2022-07-29T04:07:48;7.32;;;6.20;;
22841;SDS011;11587;47.064;15.444;2022-07-29T04:12:39;7.70;;;6.37;;
22841;SDS011;11587;47.064;15.444;2022-07-29T04:15:05;8.02;;;6.30;;
22841;SDS011;11587;47.064;15.444;2022-07-29T04:17:31;7.40;;;5.63;;
22841;SDS011;11587;47.064;15.444;2022-07-29T04:24:49;7.57;;;6.37;;
22841;SDS011;11587;47.064;15.444;2022-07-29T04:27:14;7.97;;;6.50;;
22841;SDS011;11587;47.064;15.444;2022-07-29T04:29:40;9.95;;;6.50;;
22841;SDS011;11587;47.064;15.444;2022-07-29T04:32:07;9.45;;;6.50;;
22841;SDS011;11587;47.064;15.444;2022-07-29T04:36:58;8.63;;;6.03;;
22841;SDS011;11587;47.064;15.444;2022-07-29T04:39:24;7.18;;;5.75;;
22841;SDS011;11587;47.064;15.444;2022-07-29T04:41:50;9.95;;;5.93;;
22841;SDS011;11587;47.064;15.444;2022-07-29T04:44:16;8.10;;;6.15;;
22841;SDS011;11587;47.064;15.444;2022-07-29T04:49:08;7.15;;;6.10;;
22841;SDS011;11587;47.064;15.444;2022-07-29T04:51:34;7.60;;;6.17;;
22841;SDS011;11587;47.064;15.444;2022-07-29T04:54:00;8.13;;;5.70;;
22841;SDS011;11587;47.064;15.444;2022-07-29T04:56:26;6.60;;;5.90;;
22841;SDS011;11587;47.064;15.444;2022-07-29T04:58:52;9.40;;;5.90;;
22841;SDS011;11587;47.064;15.444;2022-07-29T05:01:18;6.63;;;5.70;;
22841;SDS011;11587;47.064;15.444;2022-07-29T05:03:44;8.18;;;5.82;;
22841;SDS011;11587;47.064;15.444;2022-07-29T05:06:10;6.57;;;5.60;;
22841;SDS011;11587;47.064;15.444;2022-07-29T05:08:36;11.48;;;6.57;;
22841;SDS011;11587;47.064;15.444;2022-07-29T05:11:03;9.82;;;5.57;;
22841;SDS011;11587;47.064;15.444;2022-07-29T05:13:29;6.60;;;5.40;;
22841;SDS011;11587;47.064;15.444;2022-07-29T05:18:21;9.33;;;6.40;;
22841;SDS011;11587;47.064;15.444;2022-07-29T05:20:47;10.98;;;6.10;;
22841;SDS011;11587;47.064;15.444;2022-07-29T05:23:13;7.80;;;5.50;;
22841;SDS011;11587;47.064;15.444;2022-07-29T05:25:39;8.73;;;6.00;;
22841;SDS011;11587;47.064;15.444;2022-07-29T05:28:05;7.28;;;5.43;;
22841;SDS011;11587;47.064;15.444;2022-07-29T05:30:31;7.78;;;5.85;;
22841;SDS011;11587;47.064;15.444;2022-07-29T05:32:57;6.82;;;5.20;;
22841;SDS011;11587;47.064;15.444;2022-07-29T05:35:23;7.85;;;5.30;;
22841;SDS011;11587;47.064;15.444;2022-07-29T05:37:49;7.70;;;5.55;;
22841;SDS011;11587;47.064;15.444;2022-07-29T05:40:15;6.40;;;5.13;;
22841;SDS011;11587;47.064;15.444;2022-07-29T05:45:07;8.70;;;5.70;;
22841;SDS011;11587;47.064;15.444;2022-07-29T05:47:33;7.55;;;5.13;;
22841;SDS011;11587;47.064;15.444;2022-07-29T05:49:59;14.32;;;5.63;;
22841;SDS011;11587;47.064;15.444;2022-07-29T05:54:51;7.22;;;5.25;;
22841;SDS011;11587;47.064;15.444;2022-07-29T05:59:43;9.95;;;5.32;;
22841;SDS011;11587;47.064;15.444;2022-07-29T06:02:09;7.93;;;5.20;;
22841;SDS011;11587;47.064;15.444;2022-07-29T06:04:36;8.70;;;5.22;;
22841;SDS011;11587;47.064;15.444;2022-07-29T06:09:27;7.03;;;5.00;;
22841;SDS011;11587;47.064;15.444;2022-07-29T06:11:53;7.07;;;5.17;;
22841;SDS011;11587;47.064;15.444;2022-07-29T06:14:19;9.00;;;5.40;;
22841;SDS011;11587;47.064;15.444;2022-07-29T06:16:45;8.38;;;5.35;;
22841;SDS011;11587;47.064;15.444;2022-07-29T06:19:11;7.93;;;5.03;;
22841;SDS011;11587;47.064;15.444;2022-07-29T06:24:03;6.10;;;5.10;;
22841;SDS011;11587;47.064;15.444;2022-07-29T06:26:29;7.95;;;5.18;;
22841;SDS011;11587;47.064;15.444;2022-07-29T06:28:55;7.50;;;5.30;;
22841;SDS011;11587;47.064;15.444;2022-07-29T06:31:20;6.97;;;4.60;;
22841;SDS011;11587;47.064;15.444;2022-07-29T06:36:12;12.95;;;5.50;;
22841;SDS011;11587;47.064;15.444;2022-07-29T06:38:38;13.27;;;5.22;;
22841;SDS011;11587;47.064;15.444;2022-07-29T06:41:03;10.37;;;5.10;;
22841;SDS011;11587;47.064;15.444;2022-07-29T06:43:36;7.80;;;5.30;;
22841;SDS011;11587;47.064;15.444;2022-07-29T06:50:54;8.27;;;5.40;;
22841;SDS011;11587;47.064;15.444;2022-07-29T06:53:20;5.82;;;4.70;;
22841;SDS011;11587;47.064;15.444;2022-07-29T06:55:46;5.47;;;4.63;;
22841;SDS011;11587;47.064;15.444;2022-07-29T07:00:37;7.43;;;4.88;;
22841;SDS011;11587;47.064;15.444;2022-07-29T07:03:03;8.55;;;5.22;;
22841;SDS011;11587;47.064;15.444;2022-07-29T07:05:29;7.83;;;5.00;;
22841;SDS011;11587;47.064;15.444;2022-07-29T07:07:55;8.15;;;4.78;;
22841;SDS011;11587;47.064;15.444;2022-07-29T07:10:21;6.45;;;4.70;;
22841;SDS011;11587;47.064;15.444;2022-07-29T07:15:12;5.27;;;4.47;;
22841;SDS011;11587;47.064;15.444;2022-07-29T07:17:38;5.90;;;4.65;;
22841;SDS011;11587;47.064;15.444;2022-07-29T07:20:05;6.30;;;4.25;;
22841;SDS011;11587;47.064;15.444;2022-07-29T07:22:31;6.90;;;4.70;;
22841;SDS011;11587;47.064;15.444;2022-07-29T07:24:57;6.38;;;4.72;;
22841;SDS011;11587;47.064;15.444;2022-07-29T07:27:23;9.20;;;5.23;;
22841;SDS011;11587;47.064;15.444;2022-07-29T07:29:49;6.90;;;4.60;;
22841;SDS011;11587;47.064;15.444;2022-07-29T07:32:15;5.20;;;4.70;;
22841;SDS011;11587;47.064;15.444;2022-07-29T07:34:44;7.75;;;4.50;;
22841;SDS011;11587;47.064;15.444;2022-07-29T07:37:10;4.75;;;4.25;;
22841;SDS011;11587;47.064;15.444;2022-07-29T07:42:02;5.32;;;4.28;;
22841;SDS011;11587;47.064;15.444;2022-07-29T07:44:28;6.07;;;4.32;;
22841;SDS011;11587;47.064;15.444;2022-07-29T07:46:54;5.77;;;4.53;;
22841;SDS011;11587;47.064;15.444;2022-07-29T07:49:20;5.28;;;4.25;;
22841;SDS011;11587;47.064;15.444;2022-07-29T07:51:46;5.45;;;3.90;;
22841;SDS011;11587;47.064;15.444;2022-07-29T07:56:37;7.47;;;4.10;;
22841;SDS011;11587;47.064;15.444;2022-07-29T07:59:03;4.72;;;3.90;;
22841;SDS011;11587;47.064;15.444;2022-07-29T08:01:29;8.77;;;4.10;;
22841;SDS011;11587;47.064;15.444;2022-07-29T08:03:55;5.77;;;4.20;;
22841;SDS011;11587;47.064;15.444;2022-07-29T08:08:46;6.10;;;4.07;;
22841;SDS011;11587;47.064;15.444;2022-07-29T08:11:12;6.38;;;4.10;;
22841;SDS011;11587;47.064;15.444;2022-07-29T08:13:38;5.43;;;3.83;;
22841;SDS011;11587;47.064;15.444;2022-07-29T08:18:30;5.60;;;3.80;;
22841;SDS011;11587;47.064;15.444;2022-07-29T08:23:22;6.95;;;3.80;;
22841;SDS011;11587;47.064;15.444;2022-07-29T08:25:48;3.80;;;3.30;;
22841;SDS011;11587;47.064;15.444;2022-07-29T08:28:15;4.40;;;3.90;;
22841;SDS011;11587;47.064;15.444;2022-07-29T08:33:07;8.30;;;3.40;;
22841;SDS011;11587;47.064;15.444;2022-07-29T08:35:33;5.47;;;3.50;;
22841;SDS011;11587;47.064;15.444;2022-07-29T08:37:59;4.57;;;3.50;;
22841;SDS011;11587;47.064;15.444;2022-07-29T08:40:25;4.63;;;3.20;;
22841;SDS011;11587;47.064;15.444;2022-07-29T08:42:51;4.53;;;3.40;;
22841;SDS011;11587;47.064;15.444;2022-07-29T08:47:43;4.10;;;2.80;;
22841;SDS011;11587;47.064;15.444;2022-07-29T08:50:10;4.10;;;3.00;;
22841;SDS011;11587;47.064;15.444;2022-07-29T08:52:37;4.50;;;3.17;;
22841;SDS011;11587;47.064;15.444;2022-07-29T08:55:08;4.35;;;2.80;;
22841;SDS011;11587;47.064;15.444;2022-07-29T09:02:45;6.20;;;4.33;;
22841;SDS011;11587;47.064;15.444;2022-07-29T09:05:16;7.65;;;5.05;;
22841;SDS011;11587;47.064;15.444;2022-07-29T09:07:43;4.70;;;3.50;;
22841;SDS011;11587;47.064;15.444;2022-07-29T09:10:13;5.10;;;3.47;;
22841;SDS011;11587;47.064;15.444;2022-07-29T09:12:39;6.57;;;3.50;;
22841;SDS011;11587;47.064;15.444;2022-07-29T09:15:05;5.63;;;3.35;;
22841;SDS011;11587;47.064;15.444;2022-07-29T09:17:41;5.10;;;3.40;;
22841;SDS011;11587;47.064;15.444;2022-07-29T09:20:12;5.38;;;3.15;;
22841;SDS011;11587;47.064;15.444;2022-07-29T09:22:49;5.40;;;3.40;;
22841;SDS011;11587;47.064;15.444;2022-07-29T09:25:37;4.70;;;3.20;;
22841;SDS011;11587;47.064;15.444;2022-07-29T09:28:06;5.33;;;3.10;;
22841;SDS011;11587;47.064;15.444;2022-07-29T09:30:33;4.97;;;3.30;;
22841;SDS011;11587;47.064;15.444;2022-07-29T09:33:00;4.63;;;3.15;;
22841;SDS011;11587;47.064;15.444;2022-07-29T09:37:53;7.22;;;3.45;;
22841;SDS011;11587;47.064;15.444;2022-07-29T09:42:47;4.95;;;3.47;;
22841;SDS011;11587;47.064;15.444;2022-07-29T09:45:13;7.43;;;3.42;;
22841;SDS011;11587;47.064;15.444;2022-07-29T09:47:55;4.72;;;3.50;;
22841;SDS011;11587;47.064;15.444;2022-07-29T09:52:50;4.27;;;3.00;;
22841;SDS011;11587;47.064;15.444;2022-07-29T09:55:17;6.30;;;3.40;;
22841;SDS011;11587;47.064;15.444;2022-07-29T09:57:44;5.88;;;3.10;;
22841;SDS011;11587;47.064;15.444;2022-07-29T10:05:02;5.10;;;2.90;;
22841;SDS011;11587;47.064;15.444;2022-07-29T10:08:12;5.90;;;3.17;;
22841;SDS011;11587;47.064;15.444;2022-07-29T10:10:30;5.37;;;2.90;;
22841;SDS011;11587;47.064;15.444;2022-07-29T10:13:00;4.18;;;2.95;;
22841;SDS011;11587;47.064;15.444;2022-07-29T10:15:28;3.63;;;2.72;;
22841;SDS011;11587;47.064;15.444;2022-07-29T10:17:57;3.72;;;3.10;;
22841;SDS011;11587;47.064;15.444;2022-07-29T10:22:49;4.90;;;3.30;;
22841;SDS011;11587;47.064;15.444;2022-07-29T10:25:16;5.75;;;2.90;;
22841;SDS011;11587;47.064;15.444;2022-07-29T10:27:43;4.00;;;2.90;;
22841;SDS011;11587;47.064;15.444;2022-07-29T10:30:11;3.63;;;2.70;;
22841;SDS011;11587;47.064;15.444;2022-07-29T10:35:38;4.50;;;2.80;;
22841;SDS011;11587;47.064;15.444;2022-07-29T10:43:28;5.77;;;3.77;;
22841;SDS011;11587;47.064;15.444;2022-07-29T10:46:01;4.57;;;3.10;;
22841;SDS011;11587;47.064;15.444;2022-07-29T10:48:28;6.13;;;2.97;;
22841;SDS011;11587;47.064;15.444;2022-07-29T10:53:20;5.93;;;3.40;;
22841;SDS011;11587;47.064;15.444;2022-07-29T10:55:50;5.70;;;3.20;;
22841;SDS011;11587;47.064;15.444;2022-07-29T10:58:18;6.25;;;3.08;;
22841;SDS011;11587;47.064;15.444;2022-07-29T11:00:46;6.30;;;2.93;;
22841;SDS011;11587;47.064;15.444;2022-07-29T11:05:54;3.90;;;2.90;;
22841;SDS011;11587;47.064;15.444;2022-07-29T11:10:47;5.00;;;2.70;;
22841;SDS011;11587;47.064;15.444;2022-07-29T11:13:44;5.30;;;3.20;;
22841;SDS011;11587;47.064;15.444;2022-07-29T11:16:09;4.00;;;3.00;;
22841;SDS011;11587;47.064;15.444;2022-07-29T11:18:35;6.32;;;3.33;;
22841;SDS011;11587;47.064;15.444;2022-07-29T11:21:01;6.03;;;3.30;;
22841;SDS011;11587;47.064;15.444;2022-07-29T11:31:13;4.45;;;3.00;;
22841;SDS011;11587;47.064;15.444;2022-07-29T11:34:17;4.83;;;2.80;;
22841;SDS011;11587;47.064;15.444;2022-07-29T11:39:37;6.90;;;3.50;;
22841;SDS011;11587;47.064;15.444;2022-07-29T11:45:02;7.40;;;3.37;;
22841;SDS011;11587;47.064;15.444;2022-07-29T11:52:21;6.53;;;3.33;;
22841;SDS011;11587;47.064;15.444;2022-07-29T11:54:48;5.88;;;3.25;;
22841;SDS011;11587;47.064;15.444;2022-07-29T11:57:15;5.75;;;3.40;;
22841;SDS011;11587;47.064;15.444;2022-07-29T11:59:43;8.63;;;3.47;;
22841;SDS011;11587;47.064;15.444;2022-07-29T12:07:01;4.60;;;3.30;;
22841;SDS011;11587;47.064;15.444;2022-07-29T12:09:27;5.40;;;3.15;;
22841;SDS011;11587;47.064;15.444;2022-07-29T12:11:56;7.63;;;3.55;;
22841;SDS011;11587;47.064;15.444;2022-07-29T12:14:29;5.80;;;3.20;;
22841;SDS011;11587;47.064;15.444;2022-07-29T12:16:56;4.35;;;3.30;;
22841;SDS011;11587;47.064;15.444;2022-07-29T12:19:23;6.88;;;3.50;;
22841;SDS011;11587;47.064;15.444;2022-07-29T12:21:50;8.45;;;3.60;;
22841;SDS011;11587;47.064;15.444;2022-07-29T12:24:17;5.72;;;3.35;;
22841;SDS011;11587;47.064;15.444;2022-07-29T12:26:54;5.20;;;3.67;;
22841;SDS011;11587;47.064;15.444;2022-07-29T12:34:13;4.50;;;3.20;;
22841;SDS011;11587;47.064;15.444;2022-07-29T12:36:40;6.10;;;3.15;;
22841;SDS011;11587;47.064;15.444;2022-07-29T12:39:08;4.78;;;3.10;;
22841;SDS011;11587;47.064;15.444;2022-07-29T12:41:35;8.00;;;3.30;;
22841;SDS011;11587;47.064;15.444;2022-07-29T12:46:26;5.23;;;3.40;;
22841;SDS011;11587;47.064;15.444;2022-07-29T12:48:53;3.67;;;3.20;;
22841;SDS011;11587;47.064;15.444;2022-07-29T12:51:32;4.65;;;3.17;;
22841;SDS011;11587;47.064;15.444;2022-07-29T12:54:02;6.70;;;3.30;;
22841;SDS011;11587;47.064;15.444;2022-07-29T12:56:29;5.68;;;3.53;;
22841;SDS011;11587;47.064;15.444;2022-07-29T13:03:55;4.77;;;3.03;;
22841;SDS011;11587;47.064;15.444;2022-07-29T13:06:41;7.93;;;3.50;;
22841;SDS011;11587;47.064;15.444;2022-07-29T13:11:42;4.28;;;3.17;;
22841;SDS011;11587;47.064;15.444;2022-07-29T13:14:10;7.10;;;3.47;;
22841;SDS011;11587;47.064;15.444;2022-07-29T13:19:32;3.88;;;3.17;;
22841;SDS011;11587;47.064;15.444;2022-07-29T13:22:00;6.20;;;3.77;;
22841;SDS011;11587;47.064;15.444;2022-07-29T13:24:26;5.82;;;3.30;;
22841;SDS011;11587;47.064;15.444;2022-07-29T13:26:52;5.38;;;3.35;;
22841;SDS011;11587;47.064;15.444;2022-07-29T13:29:17;5.70;;;3.33;;
22841;SDS011;11587;47.064;15.444;2022-07-29T13:36:35;5.97;;;3.40;;
22841;SDS011;11587;47.064;15.444;2022-07-29T13:39:01;4.50;;;3.40;;
22841;SDS011;11587;47.064;15.444;2022-07-29T13:41:27;5.43;;;2.95;;
22841;SDS011;11587;47.064;15.444;2022-07-29T13:48:45;5.37;;;3.00;;
22841;SDS011;11587;47.064;15.444;2022-07-29T13:51:11;3.97;;;2.80;;
22841;SDS011;11587;47.064;15.444;2022-07-29T13:53:36;4.40;;;3.30;;
22841;SDS011;11587;47.064;15.444;2022-07-29T13:56:02;6.10;;;3.23;;
22841;SDS011;11587;47.064;15.444;2022-07-29T13:58:31;4.17;;;3.27;;
22841;SDS011;11587;47.064;15.444;2022-07-29T14:03:24;5.88;;;3.35;;
22841;SDS011;11587;47.064;15.444;2022-07-29T14:05:50;5.80;;;3.33;;
22841;SDS011;11587;47.064;15.444;2022-07-29T14:08:16;7.60;;;3.13;;
22841;SDS011;11587;47.064;15.444;2022-07-29T14:15:33;7.13;;;3.42;;
22841;SDS011;11587;47.064;15.444;2022-07-29T14:17:59;5.63;;;3.27;;
22841;SDS011;11587;47.064;15.444;2022-07-29T14:20:24;6.13;;;3.00;;
22841;SDS011;11587;47.064;15.444;2022-07-29T14:22:50;6.93;;;2.80;;
22841;SDS011;11587;47.064;15.444;2022-07-29T14:27:42;3.00;;;2.40;;
22841;SDS011;11587;47.064;15.444;2022-07-29T14:30:09;3.25;;;2.42;;
22841;SDS011;11587;47.064;15.444;2022-07-29T14:32:35;2.63;;;2.40;;
22841;SDS011;11587;47.064;15.444;2022-07-29T14:35:01;2.97;;;2.50;;
22841;SDS011;11587;47.064;15.444;2022-07-29T14:37:27;3.53;;;2.47;;
22841;SDS011;11587;47.064;15.444;2022-07-29T14:42:19;6.07;;;2.90;;
22841;SDS011;11587;47.064;15.444;2022-07-29T14:44:44;5.15;;;2.75;;
22841;SDS011;11587;47.064;15.444;2022-07-29T14:47:10;2.85;;;2.58;;
22841;SDS011;11587;47.064;15.444;2022-07-29T14:49:36;3.85;;;2.63;;
22841;SDS011;11587;47.064;15.444;2022-07-29T14:54:28;3.73;;;2.70;;
22841;SDS011;11587;47.064;15.444;2022-07-29T14:56:53;3.45;;;2.65;;
22841;SDS011;11587;47.064;15.444;2022-07-29T14:59:22;5.55;;;2.92;;
22841;SDS011;11587;47.064;15.444;2022-07-29T15:01:48;6.85;;;2.90;;
22841;SDS011;11587;47.064;15.444;2022-07-29T15:06:40;5.10;;;3.00;;
22841;SDS011;11587;47.064;15.444;2022-07-29T15:09:06;4.40;;;2.95;;
22841;SDS011;11587;47.064;15.444;2022-07-29T15:11:32;4.35;;;3.03;;
22841;SDS011;11587;47.064;15.444;2022-07-29T15:13:58;4.47;;;2.73;;
22841;SDS011;11587;47.064;15.444;2022-07-29T15:18:49;5.90;;;3.00;;
22841;SDS011;11587;47.064;15.444;2022-07-29T15:21:15;7.45;;;2.90;;
22841;SDS011;11587;47.064;15.444;2022-07-29T15:23:41;7.20;;;2.77;;
22841;SDS011;11587;47.064;15.444;2022-07-29T15:26:08;4.35;;;2.80;;
22841;SDS011;11587;47.064;15.444;2022-07-29T15:28:33;3.45;;;3.10;;
22841;SDS011;11587;47.064;15.444;2022-07-29T15:30:59;5.90;;;3.25;;
22841;SDS011;11587;47.064;15.444;2022-07-29T15:33:25;4.13;;;2.90;;
22841;SDS011;11587;47.064;15.444;2022-07-29T15:35:51;4.72;;;3.17;;
22841;SDS011;11587;47.064;15.444;2022-07-29T15:38:18;5.28;;;2.97;;
22841;SDS011;11587;47.064;15.444;2022-07-29T15:40:44;6.15;;;3.10;;
22841;SDS011;11587;47.064;15.444;2022-07-29T15:48:02;5.20;;;3.20;;
22841;SDS011;11587;47.064;15.444;2022-07-29T15:50:29;6.45;;;2.90;;
22841;SDS011;11587;47.064;15.444;2022-07-29T15:52:55;4.82;;;2.95;;
22841;SDS011;11587;47.064;15.444;2022-07-29T15:55:20;4.47;;;3.20;;
22841;SDS011;11587;47.064;15.444;2022-07-29T16:00:13;3.73;;;3.00;;
22841;SDS011;11587;47.064;15.444;2022-07-29T16:02:42;5.80;;;3.10;;
22841;SDS011;11587;47.064;15.444;2022-07-29T16:05:08;3.60;;;3.03;;
22841;SDS011;11587;47.064;15.444;2022-07-29T16:07:34;5.47;;;3.20;;
22841;SDS011;11587;47.064;15.444;2022-07-29T16:10:02;4.30;;;3.10;;
22841;SDS011;11587;47.064;15.444;2022-07-29T16:14:54;4.00;;;3.10;;
22841;SDS011;11587;47.064;15.444;2022-07-29T16:17:20;4.13;;;3.03;;
22841;SDS011;11587;47.064;15.444;2022-07-29T16:19:46;6.63;;;3.15;;
22841;SDS011;11587;47.064;15.444;2022-07-29T16:22:12;4.13;;;3.30;;
22841;SDS011;11587;47.064;15.444;2022-07-29T16:27:03;3.90;;;3.07;;
22841;SDS011;11587;47.064;15.444;2022-07-29T16:29:29;3.70;;;3.25;;
22841;SDS011;11587;47.064;15.444;2022-07-29T16:31:55;5.85;;;3.55;;
22841;SDS011;11587;47.064;15.444;2022-07-29T16:34:21;4.88;;;3.20;;
22841;SDS011;11587;47.064;15.444;2022-07-29T16:41:38;4.40;;;3.47;;
22841;SDS011;11587;47.064;15.444;2022-07-29T16:44:04;5.90;;;3.30;;
22841;SDS011;11587;47.064;15.444;2022-07-29T16:46:30;5.93;;;3.78;;
22841;SDS011;11587;47.064;15.444;2022-07-29T16:51:26;4.77;;;3.57;;
22841;SDS011;11587;47.064;15.444;2022-07-29T16:53:54;6.13;;;3.50;;
22841;SDS011;11587;47.064;15.444;2022-07-29T16:56:20;5.20;;;3.57;;
22841;SDS011;11587;47.064;15.444;2022-07-29T16:58:46;5.53;;;3.80;;
22841;SDS011;11587;47.064;15.444;2022-07-29T17:01:12;5.15;;;3.50;;
22841;SDS011;11587;47.064;15.444;2022-07-29T17:08:28;7.30;;;3.87;;
22841;SDS011;11587;47.064;15.444;2022-07-29T17:10:54;7.00;;;3.70;;
22841;SDS011;11587;47.064;15.444;2022-07-29T17:13:20;4.35;;;3.45;;
22841;SDS011;11587;47.064;15.444;2022-07-29T17:18:11;4.73;;;3.50;;
22841;SDS011;11587;47.064;15.444;2022-07-29T17:20:37;4.68;;;3.53;;
22841;SDS011;11587;47.064;15.444;2022-07-29T17:23:03;6.43;;;3.50;;
22841;SDS011;11587;47.064;15.444;2022-07-29T17:25:29;7.45;;;3.55;;
22841;SDS011;11587;47.064;15.444;2022-07-29T17:27:55;5.40;;;3.50;;
22841;SDS011;11587;47.064;15.444;2022-07-29T17:30:21;5.57;;;3.63;;
22841;SDS011;11587;47.064;15.444;2022-07-29T17:32:47;4.32;;;3.20;;
22841;SDS011;11587;47.064;15.444;2022-07-29T17:35:13;5.90;;;3.65;;
22841;SDS011;11587;47.064;15.444;2022-07-29T17:37:58;5.75;;;3.85;;
22841;SDS011;11587;47.064;15.444;2022-07-29T17:40:24;4.27;;;3.73;;
22841;SDS011;11587;47.064;15.444;2022-07-29T17:42:49;5.35;;;3.60;;
22841;SDS011;11587;47.064;15.444;2022-07-29T17:47:41;4.93;;;3.70;;
22841;SDS011;11587;47.064;15.444;2022-07-29T17:50:08;6.45;;;4.35;;
22841;SDS011;11587;47.064;15.444;2022-07-29T17:52:34;6.13;;;4.00;;
22841;SDS011;11587;47.064;15.444;2022-07-29T17:55:00;3.90;;;3.50;;
22841;SDS011;11587;47.064;15.444;2022-07-29T18:02:17;5.97;;;4.03;;
22841;SDS011;11587;47.064;15.444;2022-07-29T18:04:43;10.82;;;3.90;;
22841;SDS011;11587;47.064;15.444;2022-07-29T18:07:09;6.30;;;3.90;;
22841;SDS011;11587;47.064;15.444;2022-07-29T18:12:04;7.40;;;4.00;;
22841;SDS011;11587;47.064;15.444;2022-07-29T18:14:30;6.13;;;4.07;;
22841;SDS011;11587;47.064;15.444;2022-07-29T18:16:56;5.55;;;4.03;;
22841;SDS011;11587;47.064;15.444;2022-07-29T18:19:22;6.20;;;4.38;;
22841;SDS011;11587;47.064;15.444;2022-07-29T18:21:48;7.27;;;4.20;;
22841;SDS011;11587;47.064;15.444;2022-07-29T18:24:14;4.78;;;4.20;;
22841;SDS011;11587;47.064;15.444;2022-07-29T18:26:39;5.60;;;4.30;;
22841;SDS011;11587;47.064;15.444;2022-07-29T18:29:05;9.13;;;4.70;;
22841;SDS011;11587;47.064;15.444;2022-07-29T18:31:31;8.82;;;4.60;;
22841;SDS011;11587;47.064;15.444;2022-07-29T18:33:57;5.88;;;4.60;;
22841;SDS011;11587;47.064;15.444;2022-07-29T18:41:14;6.27;;;4.47;;
22841;SDS011;11587;47.064;15.444;2022-07-29T18:43:40;8.07;;;4.70;;
22841;SDS011;11587;47.064;15.444;2022-07-29T18:46:06;9.40;;;5.40;;
22841;SDS011;11587;47.064;15.444;2022-07-29T18:48:32;8.13;;;4.70;;
22841;SDS011;11587;47.064;15.444;2022-07-29T18:53:23;6.35;;;4.78;;
22841;SDS011;11587;47.064;15.444;2022-07-29T18:55:49;6.20;;;5.03;;